sensor_id;sensor_type;location;lat;lon;timestamp;pressure;altitude;pressure_sealevel;temperature;humidity
10348;BME280;5220;43.192;23.284;2023-02-03T00:01:43;97299.91;;;4.63;100.00
10348;BME280;5220;43.192;23.284;2023-02-03T00:04:10;97300.63;;;4.85;100.00
10348;BME280;5220;43.192;23.284;2023-02-03T00:06:37;97309.69;;;4.94;100.00
10348;BME280;5220;43.192;23.284;2023-02-03T00:09:05;97305.78;;;4.85;100.00
10348;BME280;5220;43.192;23.284;2023-02-03T00:11:31;97322.88;;;5.07;100.00
10348;BME280;5220;43.192;23.284;2023-02-03T00:13:58;97323.75;;;5.24;100.00
10348;BME280;5220;43.192;23.284;2023-02-03T00:16:26;97323.06;;;5.21;100.00
10348;BME280;5220;43.192;23.284;2023-02-03T00:18:53;97313.16;;;5.30;100.00
10348;BME280;5220;43.192;23.284;2023-02-03T00:21:19;97321.31;;;5.21;100.00
10348;BME280;5220;43.192;23.284;2023-02-03T00:23:46;97312.31;;;5.11;100.00
10348;BME280;5220;43.192;23.284;2023-02-03T00:26:15;97314.44;;;5.03;100.00
10348;BME280;5220;43.192;23.284;2023-02-03T00:28:42;97317.69;;;4.88;100.00
10348;BME280;5220;43.192;23.284;2023-02-03T00:31:14;97312.25;;;4.94;100.00
10348;BME280;5220;43.192;23.284;2023-02-03T00:33:43;97320.97;;;4.92;100.00
10348;BME280;5220;43.192;23.284;2023-02-03T00:36:10;97323.75;;;4.87;100.00
10348;BME280;5220;43.192;23.284;2023-02-03T00:38:37;97321.75;;;4.94;100.00
10348;BME280;5220;43.192;23.284;2023-02-03T00:41:04;97325.19;;;4.74;100.00
10348;BME280;5220;43.192;23.284;2023-02-03T00:43:31;97321.63;;;4.76;100.00
10348;BME280;5220;43.192;23.284;2023-02-03T00:45:58;97325.94;;;4.57;100.00
10348;BME280;5220;43.192;23.284;2023-02-03T00:48:24;97322.00;;;4.87;100.00
10348;BME280;5220;43.192;23.284;2023-02-03T00:50:53;97324.94;;;5.17;100.00
10348;BME280;5220;43.192;23.284;2023-02-03T00:53:19;97326.28;;;5.26;100.00
10348;BME280;5220;43.192;23.284;2023-02-03T00:55:46;97328.44;;;5.35;100.00
10348;BME280;5220;43.192;23.284;2023-02-03T00:58:13;97325.78;;;5.36;100.00
10348;BME280;5220;43.192;23.284;2023-02-03T01:00:39;97319.88;;;5.16;100.00
10348;BME280;5220;43.192;23.284;2023-02-03T01:03:06;97316.91;;;5.23;100.00
10348;BME280;5220;43.192;23.284;2023-02-03T01:05:33;97318.41;;;5.10;100.00
10348;BME280;5220;43.192;23.284;2023-02-03T01:08:01;97326.00;;;4.95;100.00
10348;BME280;5220;43.192;23.284;2023-02-03T01:10:28;97322.22;;;5.20;100.00
10348;BME280;5220;43.192;23.284;2023-02-03T01:12:55;97329.06;;;5.21;100.00
10348;BME280;5220;43.192;23.284;2023-02-03T01:15:22;97338.38;;;5.05;100.00
10348;BME280;5220;43.192;23.284;2023-02-03T01:17:49;97337.47;;;4.87;100.00
10348;BME280;5220;43.192;23.284;2023-02-03T01:20:16;97337.50;;;5.25;100.00
10348;BME280;5220;43.192;23.284;2023-02-03T01:22:42;97327.50;;;5.36;100.00
10348;BME280;5220;43.192;23.284;2023-02-03T01:25:10;97325.56;;;5.41;100.00
10348;BME280;5220;43.192;23.284;2023-02-03T01:27:37;97325.63;;;5.39;100.00
10348;BME280;5220;43.192;23.284;2023-02-03T01:30:04;97327.66;;;5.33;100.00
10348;BME280;5220;43.192;23.284;2023-02-03T01:32:31;97321.44;;;5.56;100.00
10348;BME280;5220;43.192;23.284;2023-02-03T01:34:58;97314.38;;;5.59;100.00
10348;BME280;5220;43.192;23.284;2023-02-03T01:37:24;97317.94;;;5.57;100.00
10348;BME280;5220;43.192;23.284;2023-02-03T01:39:51;97327.75;;;5.67;100.00
10348;BME280;5220;43.192;23.284;2023-02-03T01:42:19;97330.03;;;5.73;100.00
10348;BME280;5220;43.192;23.284;2023-02-03T01:44:47;97331.16;;;5.32;100.00
10348;BME280;5220;43.192;23.284;2023-02-03T01:47:21;97328.06;;;5.42;100.00
10348;BME280;5220;43.192;23.284;2023-02-03T01:49:53;97329.50;;;5.48;100.00
10348;BME280;5220;43.192;23.284;2023-02-03T01:52:21;97330.34;;;5.49;100.00
10348;BME280;5220;43.192;23.284;2023-02-03T01:54:51;97336.88;;;5.38;100.00
10348;BME280;5220;43.192;23.284;2023-02-03T01:57:25;97338.25;;;5.46;100.00
10348;BME280;5220;43.192;23.284;2023-02-03T01:59:55;97344.63;;;5.38;100.00
10348;BME280;5220;43.192;23.284;2023-02-03T02:02:24;97348.50;;;5.28;100.00
10348;BME280;5220;43.192;23.284;2023-02-03T02:04:54;97356.81;;;5.35;100.00
10348;BME280;5220;43.192;23.284;2023-02-03T02:07:24;97355.97;;;5.34;100.00
10348;BME280;5220;43.192;23.284;2023-02-03T02:09:50;97361.28;;;5.31;100.00
10348;BME280;5220;43.192;23.284;2023-02-03T02:12:17;97359.38;;;5.35;100.00
10348;BME280;5220;43.192;23.284;2023-02-03T02:14:46;97360.44;;;5.31;100.00
10348;BME280;5220;43.192;23.284;2023-02-03T02:17:26;97363.91;;;5.30;100.00
10348;BME280;5220;43.192;23.284;2023-02-03T02:20:34;97362.31;;;5.27;100.00
10348;BME280;5220;43.192;23.284;2023-02-03T02:23:49;97360.75;;;5.23;100.00
10348;BME280;5220;43.192;23.284;2023-02-03T02:26:36;97362.53;;;5.23;100.00
10348;BME280;5220;43.192;23.284;2023-02-03T02:29:18;97361.03;;;5.17;100.00
10348;BME280;5220;43.192;23.284;2023-02-03T02:32:10;97359.38;;;5.16;100.00
10348;BME280;5220;43.192;23.284;2023-02-03T02:34:49;97349.22;;;5.13;100.00
10348;BME280;5220;43.192;23.284;2023-02-03T02:37:27;97350.94;;;5.13;100.00
10348;BME280;5220;43.192;23.284;2023-02-03T02:39:58;97356.22;;;4.91;100.00
10348;BME280;5220;43.192;23.284;2023-02-03T02:42:33;97356.53;;;5.04;100.00
10348;BME280;5220;43.192;23.284;2023-02-03T02:45:06;97347.84;;;5.05;100.00
10348;BME280;5220;43.192;23.284;2023-02-03T02:47:37;97349.63;;;5.04;100.00
10348;BME280;5220;43.192;23.284;2023-02-03T02:50:08;97371.91;;;5.05;100.00
10348;BME280;5220;43.192;23.284;2023-02-03T02:52:40;97374.28;;;5.10;100.00
10348;BME280;5220;43.192;23.284;2023-02-03T02:55:12;97366.47;;;5.11;100.00
10348;BME280;5220;43.192;23.284;2023-02-03T02:57:41;97383.50;;;5.15;100.00
10348;BME280;5220;43.192;23.284;2023-02-03T03:00:09;97385.22;;;5.15;100.00
10348;BME280;5220;43.192;23.284;2023-02-03T03:02:38;97389.53;;;5.14;100.00
10348;BME280;5220;43.192;23.284;2023-02-03T03:05:08;97392.97;;;5.15;100.00
10348;BME280;5220;43.192;23.284;2023-02-03T03:07:41;97398.97;;;5.15;100.00
10348;BME280;5220;43.192;23.284;2023-02-03T03:10:12;97404.06;;;5.17;100.00
10348;BME280;5220;43.192;23.284;2023-02-03T03:12:45;97412.75;;;5.14;100.00
10348;BME280;5220;43.192;23.284;2023-02-03T03:15:24;97421.56;;;5.10;100.00
10348;BME280;5220;43.192;23.284;2023-02-03T03:17:58;97424.25;;;5.07;100.00
10348;BME280;5220;43.192;23.284;2023-02-03T03:20:26;97417.56;;;5.03;100.00
10348;BME280;5220;43.192;23.284;2023-02-03T03:22:58;97430.41;;;4.84;100.00
10348;BME280;5220;43.192;23.284;2023-02-03T03:25:29;97426.94;;;4.85;100.00
10348;BME280;5220;43.192;23.284;2023-02-03T03:28:00;97431.88;;;4.90;100.00
10348;BME280;5220;43.192;23.284;2023-02-03T03:30:32;97430.06;;;4.92;100.00
10348;BME280;5220;43.192;23.284;2023-02-03T03:33:01;97429.91;;;4.95;100.00
10348;BME280;5220;43.192;23.284;2023-02-03T03:35:34;97415.28;;;4.96;100.00
10348;BME280;5220;43.192;23.284;2023-02-03T03:38:08;97424.75;;;4.95;100.00
10348;BME280;5220;43.192;23.284;2023-02-03T03:40:38;97414.44;;;4.95;100.00
10348;BME280;5220;43.192;23.284;2023-02-03T03:43:09;97413.78;;;4.92;100.00
10348;BME280;5220;43.192;23.284;2023-02-03T03:45:41;97412.09;;;4.91;100.00
10348;BME280;5220;43.192;23.284;2023-02-03T03:48:15;97419.19;;;4.85;100.00
10348;BME280;5220;43.192;23.284;2023-02-03T03:50:48;97424.22;;;4.88;100.00
10348;BME280;5220;43.192;23.284;2023-02-03T03:53:17;97415.97;;;4.80;100.00
10348;BME280;5220;43.192;23.284;2023-02-03T03:55:48;97419.13;;;4.87;100.00
10348;BME280;5220;43.192;23.284;2023-02-03T03:58:19;97425.25;;;4.84;100.00
10348;BME280;5220;43.192;23.284;2023-02-03T04:00:48;97423.50;;;4.85;100.00
10348;BME280;5220;43.192;23.284;2023-02-03T04:03:20;97426.22;;;4.82;100.00
10348;BME280;5220;43.192;23.284;2023-02-03T04:05:48;97417.91;;;4.75;100.00
10348;BME280;5220;43.192;23.284;2023-02-03T04:08:15;97420.41;;;4.77;100.00
10348;BME280;5220;43.192;23.284;2023-02-03T04:10:42;97424.09;;;4.71;100.00
10348;BME280;5220;43.192;23.284;2023-02-03T04:13:10;97424.84;;;4.73;100.00
10348;BME280;5220;43.192;23.284;2023-02-03T04:15:37;97416.31;;;4.73;100.00
10348;BME280;5220;43.192;23.284;2023-02-03T04:18:04;97425.06;;;4.69;100.00
10348;BME280;5220;43.192;23.284;2023-02-03T04:20:33;97412.59;;;4.58;100.00
10348;BME280;5220;43.192;23.284;2023-02-03T04:23:00;97427.00;;;4.64;100.00
10348;BME280;5220;43.192;23.284;2023-02-03T04:25:26;97427.19;;;4.59;100.00
10348;BME280;5220;43.192;23.284;2023-02-03T04:27:53;97427.22;;;4.58;100.00
10348;BME280;5220;43.192;23.284;2023-02-03T04:30:20;97431.03;;;4.49;100.00
10348;BME280;5220;43.192;23.284;2023-02-03T04:32:47;97436.25;;;4.48;100.00
10348;BME280;5220;43.192;23.284;2023-02-03T04:35:14;97438.25;;;4.41;100.00
10348;BME280;5220;43.192;23.284;2023-02-03T04:37:42;97440.16;;;4.36;100.00
10348;BME280;5220;43.192;23.284;2023-02-03T04:40:11;97432.75;;;4.28;100.00
10348;BME280;5220;43.192;23.284;2023-02-03T04:42:38;97440.28;;;4.33;100.00
10348;BME280;5220;43.192;23.284;2023-02-03T04:45:07;97436.88;;;4.32;100.00
10348;BME280;5220;43.192;23.284;2023-02-03T04:47:34;97449.75;;;4.32;100.00
10348;BME280;5220;43.192;23.284;2023-02-03T04:50:01;97436.22;;;4.27;100.00
10348;BME280;5220;43.192;23.284;2023-02-03T04:52:28;97436.72;;;4.15;100.00
10348;BME280;5220;43.192;23.284;2023-02-03T04:54:56;97450.34;;;4.17;100.00
10348;BME280;5220;43.192;23.284;2023-02-03T04:57:23;97464.38;;;4.10;100.00
10348;BME280;5220;43.192;23.284;2023-02-03T04:59:49;97457.19;;;3.97;100.00
10348;BME280;5220;43.192;23.284;2023-02-03T05:02:16;97466.66;;;3.96;100.00
10348;BME280;5220;43.192;23.284;2023-02-03T05:04:43;97478.63;;;3.97;100.00
10348;BME280;5220;43.192;23.284;2023-02-03T05:07:09;97494.06;;;3.97;100.00
10348;BME280;5220;43.192;23.284;2023-02-03T05:09:36;97494.41;;;3.88;100.00
10348;BME280;5220;43.192;23.284;2023-02-03T05:12:05;97493.94;;;3.78;100.00
10348;BME280;5220;43.192;23.284;2023-02-03T05:14:31;97490.47;;;3.79;100.00
10348;BME280;5220;43.192;23.284;2023-02-03T05:16:58;97503.25;;;3.81;100.00
10348;BME280;5220;43.192;23.284;2023-02-03T05:19:25;97508.44;;;3.58;100.00
10348;BME280;5220;43.192;23.284;2023-02-03T05:21:51;97506.47;;;3.16;100.00
10348;BME280;5220;43.192;23.284;2023-02-03T05:24:18;97503.88;;;3.41;100.00
10348;BME280;5220;43.192;23.284;2023-02-03T05:26:45;97504.66;;;3.43;100.00
10348;BME280;5220;43.192;23.284;2023-02-03T05:29:13;97503.69;;;3.46;100.00
10348;BME280;5220;43.192;23.284;2023-02-03T05:31:39;97521.50;;;3.52;100.00
10348;BME280;5220;43.192;23.284;2023-02-03T05:34:06;97521.59;;;3.49;100.00
10348;BME280;5220;43.192;23.284;2023-02-03T05:36:33;97533.78;;;3.44;100.00
10348;BME280;5220;43.192;23.284;2023-02-03T05:39:00;97532.72;;;3.49;100.00
10348;BME280;5220;43.192;23.284;2023-02-03T05:41:26;97534.56;;;3.46;100.00
10348;BME280;5220;43.192;23.284;2023-02-03T05:44:10;97531.41;;;3.39;100.00
10348;BME280;5220;43.192;23.284;2023-02-03T05:46:38;97545.13;;;3.38;100.00
10348;BME280;5220;43.192;23.284;2023-02-03T05:49:05;97534.38;;;3.27;100.00
10348;BME280;5220;43.192;23.284;2023-02-03T05:51:32;97538.75;;;3.00;100.00
10348;BME280;5220;43.192;23.284;2023-02-03T05:53:59;97534.59;;;3.21;100.00
10348;BME280;5220;43.192;23.284;2023-02-03T05:56:25;97542.16;;;3.25;100.00
10348;BME280;5220;43.192;23.284;2023-02-03T05:58:52;97545.03;;;2.92;100.00
10348;BME280;5220;43.192;23.284;2023-02-03T06:01:19;97558.66;;;3.18;100.00
10348;BME280;5220;43.192;23.284;2023-02-03T06:03:47;97558.94;;;3.36;100.00
10348;BME280;5220;43.192;23.284;2023-02-03T06:06:15;97551.97;;;3.39;100.00
10348;BME280;5220;43.192;23.284;2023-02-03T06:08:42;97557.88;;;3.41;100.00
10348;BME280;5220;43.192;23.284;2023-02-03T06:11:09;97569.69;;;3.47;100.00
10348;BME280;5220;43.192;23.284;2023-02-03T06:13:36;97558.56;;;3.46;100.00
10348;BME280;5220;43.192;23.284;2023-02-03T06:16:03;97567.81;;;3.52;100.00
10348;BME280;5220;43.192;23.284;2023-02-03T06:18:29;97564.31;;;3.53;100.00
10348;BME280;5220;43.192;23.284;2023-02-03T06:20:57;97570.63;;;3.44;100.00
10348;BME280;5220;43.192;23.284;2023-02-03T06:23:24;97567.75;;;3.53;100.00
10348;BME280;5220;43.192;23.284;2023-02-03T06:25:51;97579.13;;;3.46;100.00
10348;BME280;5220;43.192;23.284;2023-02-03T06:28:18;97572.22;;;3.48;100.00
10348;BME280;5220;43.192;23.284;2023-02-03T06:30:47;97579.88;;;3.50;100.00
10348;BME280;5220;43.192;23.284;2023-02-03T06:33:14;97578.75;;;3.57;100.00
10348;BME280;5220;43.192;23.284;2023-02-03T06:35:41;97581.25;;;3.58;100.00
10348;BME280;5220;43.192;23.284;2023-02-03T06:38:09;97582.84;;;3.62;100.00
10348;BME280;5220;43.192;23.284;2023-02-03T06:40:36;97587.16;;;3.62;100.00
10348;BME280;5220;43.192;23.284;2023-02-03T06:43:03;97588.22;;;3.56;100.00
10348;BME280;5220;43.192;23.284;2023-02-03T06:45:30;97584.56;;;3.62;100.00
10348;BME280;5220;43.192;23.284;2023-02-03T06:47:56;97585.38;;;3.64;100.00
10348;BME280;5220;43.192;23.284;2023-02-03T06:50:23;97583.50;;;3.67;100.00
10348;BME280;5220;43.192;23.284;2023-02-03T06:52:50;97596.88;;;3.54;100.00
10348;BME280;5220;43.192;23.284;2023-02-03T06:55:18;97599.91;;;3.65;100.00
10348;BME280;5220;43.192;23.284;2023-02-03T06:57:46;97597.09;;;3.71;100.00
10348;BME280;5220;43.192;23.284;2023-02-03T07:00:14;97597.34;;;3.88;100.00
10348;BME280;5220;43.192;23.284;2023-02-03T07:02:41;97592.84;;;3.95;100.00
10348;BME280;5220;43.192;23.284;2023-02-03T07:05:08;97601.06;;;4.04;100.00
10348;BME280;5220;43.192;23.284;2023-02-03T07:07:35;97604.94;;;4.14;100.00
10348;BME280;5220;43.192;23.284;2023-02-03T07:10:04;97602.81;;;4.25;100.00
10348;BME280;5220;43.192;23.284;2023-02-03T07:12:32;97612.06;;;4.31;100.00
10348;BME280;5220;43.192;23.284;2023-02-03T07:15:01;97606.56;;;4.40;100.00
10348;BME280;5220;43.192;23.284;2023-02-03T07:17:27;97623.47;;;4.47;100.00
10348;BME280;5220;43.192;23.284;2023-02-03T07:19:54;97619.81;;;4.53;100.00
10348;BME280;5220;43.192;23.284;2023-02-03T07:22:21;97614.38;;;4.60;100.00
10348;BME280;5220;43.192;23.284;2023-02-03T07:24:47;97621.66;;;4.71;100.00
10348;BME280;5220;43.192;23.284;2023-02-03T07:27:14;97621.25;;;4.81;100.00
10348;BME280;5220;43.192;23.284;2023-02-03T07:29:42;97618.47;;;4.86;100.00
10348;BME280;5220;43.192;23.284;2023-02-03T07:32:09;97618.81;;;4.99;100.00
10348;BME280;5220;43.192;23.284;2023-02-03T07:34:35;97613.97;;;5.13;100.00
10348;BME280;5220;43.192;23.284;2023-02-03T07:37:02;97601.34;;;5.27;100.00
10348;BME280;5220;43.192;23.284;2023-02-03T07:39:29;97607.06;;;5.33;100.00
10348;BME280;5220;43.192;23.284;2023-02-03T07:41:56;97600.69;;;5.42;100.00
10348;BME280;5220;43.192;23.284;2023-02-03T07:44:22;97600.88;;;5.58;100.00
10348;BME280;5220;43.192;23.284;2023-02-03T07:46:50;97602.16;;;5.68;100.00
10348;BME280;5220;43.192;23.284;2023-02-03T07:49:17;97597.31;;;5.80;100.00
10348;BME280;5220;43.192;23.284;2023-02-03T07:51:44;97606.91;;;5.77;100.00
10348;BME280;5220;43.192;23.284;2023-02-03T07:54:11;97610.22;;;6.01;100.00
10348;BME280;5220;43.192;23.284;2023-02-03T07:56:41;97614.16;;;5.89;100.00
10348;BME280;5220;43.192;23.284;2023-02-03T07:59:07;97611.13;;;6.00;100.00
10348;BME280;5220;43.192;23.284;2023-02-03T08:01:34;97622.03;;;6.06;100.00
10348;BME280;5220;43.192;23.284;2023-02-03T08:04:02;97616.50;;;6.14;100.00
10348;BME280;5220;43.192;23.284;2023-02-03T08:06:30;97626.13;;;5.91;100.00
10348;BME280;5220;43.192;23.284;2023-02-03T08:08:56;97619.44;;;6.06;100.00
10348;BME280;5220;43.192;23.284;2023-02-03T08:11:23;97630.34;;;6.31;100.00
10348;BME280;5220;43.192;23.284;2023-02-03T08:13:50;97621.25;;;6.41;100.00
10348;BME280;5220;43.192;23.284;2023-02-03T08:16:16;97620.84;;;6.51;100.00
10348;BME280;5220;43.192;23.284;2023-02-03T08:18:43;97614.31;;;6.61;99.19
10348;BME280;5220;43.192;23.284;2023-02-03T08:21:11;97611.66;;;6.81;100.00
10348;BME280;5220;43.192;23.284;2023-02-03T08:23:38;97621.34;;;6.76;97.58
10348;BME280;5220;43.192;23.284;2023-02-03T08:26:05;97626.28;;;6.99;99.00
10348;BME280;5220;43.192;23.284;2023-02-03T08:28:32;97635.16;;;7.12;98.20
10348;BME280;5220;43.192;23.284;2023-02-03T08:30:58;97636.34;;;7.05;94.25
10348;BME280;5220;43.192;23.284;2023-02-03T08:33:25;97631.88;;;7.26;93.84
10348;BME280;5220;43.192;23.284;2023-02-03T08:35:53;97625.97;;;7.41;98.47
10348;BME280;5220;43.192;23.284;2023-02-03T08:38:22;97622.75;;;7.36;93.58
10348;BME280;5220;43.192;23.284;2023-02-03T08:40:49;97628.38;;;7.27;94.11
10348;BME280;5220;43.192;23.284;2023-02-03T08:43:16;97638.94;;;7.05;90.33
10348;BME280;5220;43.192;23.284;2023-02-03T08:45:42;97628.47;;;7.25;91.18
10348;BME280;5220;43.192;23.284;2023-02-03T08:48:09;97625.88;;;7.42;89.77
10348;BME280;5220;43.192;23.284;2023-02-03T08:50:36;97623.16;;;7.28;86.53
10348;BME280;5220;43.192;23.284;2023-02-03T08:53:03;97628.91;;;7.33;86.00
10348;BME280;5220;43.192;23.284;2023-02-03T08:55:31;97619.56;;;7.31;86.60
10348;BME280;5220;43.192;23.284;2023-02-03T08:57:58;97610.34;;;7.42;76.44
10348;BME280;5220;43.192;23.284;2023-02-03T09:00:25;97621.31;;;7.30;70.28
10348;BME280;5220;43.192;23.284;2023-02-03T09:02:51;97618.78;;;7.12;70.47
10348;BME280;5220;43.192;23.284;2023-02-03T09:05:18;97605.69;;;7.32;67.13
10348;BME280;5220;43.192;23.284;2023-02-03T09:07:45;97591.16;;;7.46;69.07
10348;BME280;5220;43.192;23.284;2023-02-03T09:10:12;97594.66;;;7.45;65.66
10348;BME280;5220;43.192;23.284;2023-02-03T09:12:40;97602.13;;;7.51;63.20
10348;BME280;5220;43.192;23.284;2023-02-03T09:15:07;97601.28;;;7.34;62.26
10348;BME280;5220;43.192;23.284;2023-02-03T09:17:34;97595.50;;;7.29;61.31
10348;BME280;5220;43.192;23.284;2023-02-03T09:20:01;97592.22;;;7.42;62.60
10348;BME280;5220;43.192;23.284;2023-02-03T09:22:27;97602.34;;;7.47;63.89
10348;BME280;5220;43.192;23.284;2023-02-03T09:24:54;97597.41;;;7.42;69.80
10348;BME280;5220;43.192;23.284;2023-02-03T09:27:21;97605.50;;;7.00;67.14
10348;BME280;5220;43.192;23.284;2023-02-03T09:29:49;97597.91;;;7.32;70.75
10348;BME280;5220;43.192;23.284;2023-02-03T09:32:15;97589.47;;;7.45;70.48
10348;BME280;5220;43.192;23.284;2023-02-03T09:34:42;97604.25;;;7.26;68.49
10348;BME280;5220;43.192;23.284;2023-02-03T09:37:09;97592.97;;;7.44;74.39
10348;BME280;5220;43.192;23.284;2023-02-03T09:39:35;97604.72;;;7.34;72.66
10348;BME280;5220;43.192;23.284;2023-02-03T09:42:12;97596.94;;;7.17;70.82
10348;BME280;5220;43.192;23.284;2023-02-03T09:44:49;97600.50;;;7.32;90.93
10348;BME280;5220;43.192;23.284;2023-02-03T09:47:23;97594.28;;;7.19;72.16
10348;BME280;5220;43.192;23.284;2023-02-03T09:49:55;97594.34;;;7.17;71.30
10348;BME280;5220;43.192;23.284;2023-02-03T09:52:25;97586.84;;;7.13;69.72
10348;BME280;5220;43.192;23.284;2023-02-03T09:55:00;97579.31;;;7.25;69.87
10348;BME280;5220;43.192;23.284;2023-02-03T09:57:29;97582.47;;;7.47;81.93
10348;BME280;5220;43.192;23.284;2023-02-03T10:00:01;97587.50;;;7.33;64.24
10348;BME280;5220;43.192;23.284;2023-02-03T10:02:40;97586.78;;;7.64;62.81
10348;BME280;5220;43.192;23.284;2023-02-03T10:05:17;97582.97;;;7.71;61.82
10348;BME280;5220;43.192;23.284;2023-02-03T10:07:52;97580.63;;;7.67;62.93
10348;BME280;5220;43.192;23.284;2023-02-03T10:10:32;97579.13;;;7.63;59.88
10348;BME280;5220;43.192;23.284;2023-02-03T10:13:07;97575.78;;;7.43;59.39
10348;BME280;5220;43.192;23.284;2023-02-03T10:15:50;97580.81;;;7.46;59.13
10348;BME280;5220;43.192;23.284;2023-02-03T10:18:20;97581.78;;;7.27;62.65
10348;BME280;5220;43.192;23.284;2023-02-03T10:20:52;97570.69;;;7.25;64.43
10348;BME280;5220;43.192;23.284;2023-02-03T10:23:25;97568.94;;;7.25;72.51
10348;BME280;5220;43.192;23.284;2023-02-03T10:25:54;97561.03;;;6.94;66.16
10348;BME280;5220;43.192;23.284;2023-02-03T10:28:26;97568.56;;;7.16;79.50
10348;BME280;5220;43.192;23.284;2023-02-03T10:30:57;97558.06;;;7.19;61.46
10348;BME280;5220;43.192;23.284;2023-02-03T10:33:26;97555.72;;;7.64;81.81
10348;BME280;5220;43.192;23.284;2023-02-03T10:35:54;97558.41;;;7.45;57.32
10348;BME280;5220;43.192;23.284;2023-02-03T10:38:38;97555.09;;;7.43;56.08
10348;BME280;5220;43.192;23.284;2023-02-03T10:41:06;97551.44;;;7.30;53.17
10348;BME280;5220;43.192;23.284;2023-02-03T10:43:33;97551.13;;;7.36;51.26
10348;BME280;5220;43.192;23.284;2023-02-03T10:46:15;97551.81;;;7.73;51.12
10348;BME280;5220;43.192;23.284;2023-02-03T10:48:42;97549.41;;;7.85;51.82
10348;BME280;5220;43.192;23.284;2023-02-03T10:51:16;97545.66;;;7.91;51.59
10348;BME280;5220;43.192;23.284;2023-02-03T10:53:44;97543.19;;;8.05;51.25
10348;BME280;5220;43.192;23.284;2023-02-03T10:56:13;97534.81;;;7.84;51.03
10348;BME280;5220;43.192;23.284;2023-02-03T10:58:46;97534.53;;;7.73;50.39
10348;BME280;5220;43.192;23.284;2023-02-03T11:01:17;97535.00;;;7.97;51.59
10348;BME280;5220;43.192;23.284;2023-02-03T11:03:54;97530.91;;;8.08;50.20
10348;BME280;5220;43.192;23.284;2023-02-03T11:06:21;97525.56;;;8.27;49.80
10348;BME280;5220;43.192;23.284;2023-02-03T11:08:49;97515.56;;;8.52;51.19
10348;BME280;5220;43.192;23.284;2023-02-03T11:11:20;97510.75;;;8.60;51.33
10348;BME280;5220;43.192;23.284;2023-02-03T11:13:52;97504.47;;;8.80;52.66
10348;BME280;5220;43.192;23.284;2023-02-03T11:16:20;97506.06;;;8.97;49.80
10348;BME280;5220;43.192;23.284;2023-02-03T11:18:54;97491.91;;;8.43;48.40
10348;BME280;5220;43.192;23.284;2023-02-03T11:21:24;97502.84;;;8.32;46.15
10348;BME280;5220;43.192;23.284;2023-02-03T11:24:00;97487.94;;;8.20;48.79
10348;BME280;5220;43.192;23.284;2023-02-03T11:26:31;97485.69;;;7.98;49.73
10348;BME280;5220;43.192;23.284;2023-02-03T11:29:01;97490.06;;;8.29;49.40
10348;BME280;5220;43.192;23.284;2023-02-03T11:31:32;97491.03;;;8.11;49.11
10348;BME280;5220;43.192;23.284;2023-02-03T11:34:01;97495.22;;;8.13;50.90
10348;BME280;5220;43.192;23.284;2023-02-03T11:36:31;97496.38;;;7.92;47.57
10348;BME280;5220;43.192;23.284;2023-02-03T11:39:25;97481.06;;;8.19;49.85
10348;BME280;5220;43.192;23.284;2023-02-03T11:41:53;97489.69;;;8.04;47.47
10348;BME280;5220;43.192;23.284;2023-02-03T11:44:23;97487.28;;;8.17;48.79
10348;BME280;5220;43.192;23.284;2023-02-03T11:46:54;97496.78;;;8.00;46.94
10348;BME280;5220;43.192;23.284;2023-02-03T11:55:45;97487.09;;;8.04;46.92
10348;BME280;5220;43.192;23.284;2023-02-03T11:58:46;97485.19;;;8.07;48.05
10348;BME280;5220;43.192;23.284;2023-02-03T12:01:23;97482.59;;;8.07;48.76
10348;BME280;5220;43.192;23.284;2023-02-03T12:07:13;97486.03;;;8.08;48.06
10348;BME280;5220;43.192;23.284;2023-02-03T12:09:49;97470.22;;;7.81;50.16
10348;BME280;5220;43.192;23.284;2023-02-03T12:12:36;97467.66;;;7.97;50.22
10348;BME280;5220;43.192;23.284;2023-02-03T12:15:19;97447.00;;;8.11;52.09
10348;BME280;5220;43.192;23.284;2023-02-03T12:18:06;97457.75;;;7.88;51.78
10348;BME280;5220;43.192;23.284;2023-02-03T12:20:49;97455.53;;;8.29;46.34
10348;BME280;5220;43.192;23.284;2023-02-03T12:23:29;97455.50;;;8.44;43.81
10348;BME280;5220;43.192;23.284;2023-02-03T12:26:04;97447.44;;;8.64;44.73
10348;BME280;5220;43.192;23.284;2023-02-03T12:28:42;97455.28;;;8.93;44.67
10348;BME280;5220;43.192;23.284;2023-02-03T12:31:15;97441.53;;;8.77;44.40
10348;BME280;5220;43.192;23.284;2023-02-03T12:33:48;97446.84;;;8.59;42.91
10348;BME280;5220;43.192;23.284;2023-02-03T12:36:21;97456.47;;;8.57;41.44
10348;BME280;5220;43.192;23.284;2023-02-03T12:38:54;97446.72;;;8.77;40.49
10348;BME280;5220;43.192;23.284;2023-02-03T12:41:24;97446.94;;;8.88;42.23
10348;BME280;5220;43.192;23.284;2023-02-03T12:43:54;97448.78;;;8.86;43.10
10348;BME280;5220;43.192;23.284;2023-02-03T12:46:26;97446.38;;;8.83;41.61
10348;BME280;5220;43.192;23.284;2023-02-03T12:48:58;97443.47;;;8.73;42.62
10348;BME280;5220;43.192;23.284;2023-02-03T12:51:34;97441.19;;;8.83;42.40
10348;BME280;5220;43.192;23.284;2023-02-03T12:54:09;97438.94;;;8.77;38.78
10348;BME280;5220;43.192;23.284;2023-02-03T12:56:41;97437.84;;;8.81;37.81
10348;BME280;5220;43.192;23.284;2023-02-03T12:59:14;97432.19;;;8.74;38.17
10348;BME280;5220;43.192;23.284;2023-02-03T13:01:48;97436.63;;;8.42;37.53
10348;BME280;5220;43.192;23.284;2023-02-03T13:04:22;97422.03;;;8.55;36.80
10348;BME280;5220;43.192;23.284;2023-02-03T13:06:56;97418.59;;;8.55;36.33
10348;BME280;5220;43.192;23.284;2023-02-03T13:09:30;97422.06;;;8.70;38.39
10348;BME280;5220;43.192;23.284;2023-02-03T13:12:02;97430.91;;;8.51;38.15
10348;BME280;5220;43.192;23.284;2023-02-03T13:14:35;97423.50;;;8.59;39.35
10348;BME280;5220;43.192;23.284;2023-02-03T13:17:09;97422.09;;;8.54;38.08
10348;BME280;5220;43.192;23.284;2023-02-03T13:19:42;97420.66;;;8.34;37.58
10348;BME280;5220;43.192;23.284;2023-02-03T13:22:13;97419.88;;;8.48;38.66
10348;BME280;5220;43.192;23.284;2023-02-03T13:24:43;97417.72;;;8.40;37.89
10348;BME280;5220;43.192;23.284;2023-02-03T13:27:35;97431.88;;;8.64;38.78
10348;BME280;5220;43.192;23.284;2023-02-03T13:30:21;97429.97;;;8.82;39.73